West Lake — 3FHS5 — position and weather

sailwx.info

Track history (hours):
 
Tides and Currents Weather Stations Pressure Air Temp Water Temp Dewpoint Dewpoint Depression Visibility Wind Speed Wind Dir Waves Ship Positions

West Lake

Last reported at 2016-Nov-30 16:17 UTC. Time now 2016-Dec-10 05:03 UTC.
Position N 02°02' E 102°10'.
Warning: this ship's position is 9 days out of date.

Length 188 m; draft 6.1 m.

Type: Cargo ship. MMSI: 355304000.

Date/timePositionNaut miles runAvg speedWind from/ knotsBaromVisibWave heightAir tempDewpointWater temp
2016-Nov-30 16:17N 02°02' E 102°10'811.0
2016-Nov-30 15:31N 01°57' E 102°17'1010.2
2016-Nov-30 14:33N 01°52' E 102°26'10 9.7
2016-Nov-30 13:34N 01°48' E 102°35'10 9.4
2016-Nov-30 12:33N 01°44' E 102°43'6811.1
2016-Nov-30 06:27N 01°10' E 103°42'7 8.3
2016-Nov-30 05:33N 01°11' E 103°49'1010.0
2016-Nov-30 04:33N 01°15' E 103°58'9 1.3
2016-Nov-29 21:31N 01°19' E 104°07'5 4.8
2016-Nov-29 20:33N 01°22' E 104°03'9 8.7
2016-Nov-29 19:33N 01°26' E 103°55'0 0.1
2016-Nov-29 17:31N 01°26' E 103°55'0 0.0
2016-Nov-29 11:31N 01°26' E 103°55'0 0.0
2016-Nov-29 10:31N 01°26' E 103°55'0 0.0
2016-Nov-29 09:25N 01°26' E 103°55'0 0.0
2016-Nov-29 07:34N 01°26' E 103°55'0 0.0
2016-Nov-29 06:31N 01°26' E 103°55'0 0.0
2016-Nov-29 05:31N 01°26' E 103°55'0 0.0
2016-Nov-29 03:07N 01°26' E 103°55'0 0.0
2016-Nov-29 02:31N 01°26' E 103°55'0 0.0
2016-Nov-29 01:31N 01°26' E 103°55'0 0.0
2016-Nov-29 00:13N 01°26' E 103°55'0 0.0
2016-Nov-28 18:28N 01°26' E 103°55'0 0.0
2016-Nov-28 15:34N 01°26' E 103°55'0 0.0
2016-Nov-28 11:19N 01°26' E 103°55'0 0.0
2016-Nov-28 10:25N 01°26' E 103°55'0 0.0
2016-Nov-28 08:16N 01°26' E 103°55'0 0.0
2016-Nov-28 07:31N 01°26' E 103°55'0 0.0
2016-Nov-28 06:31N 01°26' E 103°55'0 0.0
2016-Nov-28 02:16N 01°26' E 103°55'0 0.0
2016-Nov-28 01:16N 01°26' E 103°55'0 0.0
2016-Nov-28 00:25N 01°26' E 103°55'0 0.0
2016-Nov-27 23:07N 01°26' E 103°55'0 0.0
2016-Nov-27 22:34N 01°26' E 103°55'0 0.0
2016-Nov-27 20:25N 01°26' E 103°55'0 0.0
2016-Nov-27 19:31N 01°26' E 103°55'0 0.0
2016-Nov-27 18:13N 01°26' E 103°55'0 0.0
2016-Nov-27 17:34N 01°26' E 103°55'0 0.0
2016-Nov-27 05:34N 01°26' E 103°55'0 0.0
2016-Nov-27 04:31N 01°26' E 103°55'0 0.0
2016-Nov-27 02:13N 01°26' E 103°55'0 0.4
2016-Nov-27 01:33N 01°26' E 103°55'6 5.7
2016-Nov-27 00:33N 01°24' E 104°00'7 5.9
2016-Nov-26 23:19N 01°20' E 104°06'0 0.1
2016-Nov-26 18:33N 01°20' E 104°06'0 0.1
2016-Nov-26 15:24N 01°20' E 104°06'0 0.0
2016-Nov-26 14:15N 01°20' E 104°06'0 0.0
2016-Nov-26 13:33N 01°20' E 104°06'0 0.0
2016-Nov-26 09:33N 01°20' E 104°06'0 0.0
2016-Nov-26 08:15N 01°20' E 104°06'0 0.0
2016-Nov-26 04:33N 01°20' E 104°06'0 0.1
2016-Nov-26 01:12N 01°20' E 104°06'0 0.0
2016-Nov-26 00:27N 01°20' E 104°06'0 0.1
2016-Nov-25 23:30N 01°20' E 104°06'7 1.2
2016-Nov-25 17:23N 01°18' E 104°13'  
Track history (hours):
 
Tides and Currents Weather Stations Pressure Air Temp Water Temp Dewpoint Dewpoint Depression Visibility Wind Speed Wind Dir Waves Ship Positions

West Lake

Last reported at 2016-Nov-30 16:17 UTC. Time now 2016-Dec-10 05:03 UTC.
Position N 02°02' E 102°10'.
Warning: this ship's position is 9 days out of date.

Length 188 m; draft 6.1 m.

Type: Cargo ship. MMSI: 355304000.

Date/timePositionNaut miles runAvg speedWind from/ knotsBaromVisibWave heightAir tempDewpointWater temp
2016-Nov-30 16:17N 02°02' E 102°10'811.0
2016-Nov-30 15:31N 01°57' E 102°17'1010.2
2016-Nov-30 14:33N 01°52' E 102°26'10 9.7
2016-Nov-30 13:34N 01°48' E 102°35'10 9.4
2016-Nov-30 12:33N 01°44' E 102°43'6811.1
2016-Nov-30 06:27N 01°10' E 103°42'7 8.3
2016-Nov-30 05:33N 01°11' E 103°49'1010.0
2016-Nov-30 04:33N 01°15' E 103°58'9 1.3
2016-Nov-29 21:31N 01°19' E 104°07'5 4.8
2016-Nov-29 20:33N 01°22' E 104°03'9 8.7
2016-Nov-29 19:33N 01°26' E 103°55'0 0.1
2016-Nov-29 17:31N 01°26' E 103°55'0 0.0
2016-Nov-29 11:31N 01°26' E 103°55'0 0.0
2016-Nov-29 10:31N 01°26' E 103°55'0 0.0
2016-Nov-29 09:25N 01°26' E 103°55'0 0.0
2016-Nov-29 07:34N 01°26' E 103°55'0 0.0
2016-Nov-29 06:31N 01°26' E 103°55'0 0.0
2016-Nov-29 05:31N 01°26' E 103°55'0 0.0
2016-Nov-29 03:07N 01°26' E 103°55'0 0.0
2016-Nov-29 02:31N 01°26' E 103°55'0 0.0
2016-Nov-29 01:31N 01°26' E 103°55'0 0.0
2016-Nov-29 00:13N 01°26' E 103°55'0 0.0
2016-Nov-28 18:28N 01°26' E 103°55'0 0.0
2016-Nov-28 15:34N 01°26' E 103°55'0 0.0
2016-Nov-28 11:19N 01°26' E 103°55'0 0.0
2016-Nov-28 10:25N 01°26' E 103°55'0 0.0
2016-Nov-28 08:16N 01°26' E 103°55'0 0.0
2016-Nov-28 07:31N 01°26' E 103°55'0 0.0
2016-Nov-28 06:31N 01°26' E 103°55'0 0.0
2016-Nov-28 02:16N 01°26' E 103°55'0 0.0
2016-Nov-28 01:16N 01°26' E 103°55'0 0.0
2016-Nov-28 00:25N 01°26' E 103°55'0 0.0
2016-Nov-27 23:07N 01°26' E 103°55'0 0.0
2016-Nov-27 22:34N 01°26' E 103°55'0 0.0
2016-Nov-27 20:25N 01°26' E 103°55'0 0.0
2016-Nov-27 19:31N 01°26' E 103°55'0 0.0
2016-Nov-27 18:13N 01°26' E 103°55'0 0.0
2016-Nov-27 17:34N 01°26' E 103°55'0 0.0
2016-Nov-27 05:34N 01°26' E 103°55'0 0.0
2016-Nov-27 04:31N 01°26' E 103°55'0 0.0
2016-Nov-27 02:13N 01°26' E 103°55'0 0.4
2016-Nov-27 01:33N 01°26' E 103°55'6 5.7
2016-Nov-27 00:33N 01°24' E 104°00'7 5.9
2016-Nov-26 23:19N 01°20' E 104°06'0 0.1
2016-Nov-26 18:33N 01°20' E 104°06'0 0.1
2016-Nov-26 15:24N 01°20' E 104°06'0 0.0
2016-Nov-26 14:15N 01°20' E 104°06'0 0.0
2016-Nov-26 13:33N 01°20' E 104°06'0 0.0
2016-Nov-26 09:33N 01°20' E 104°06'0 0.0
2016-Nov-26 08:15N 01°20' E 104°06'0 0.0
2016-Nov-26 04:33N 01°20' E 104°06'0 0.1
2016-Nov-26 01:12N 01°20' E 104°06'0 0.0
2016-Nov-26 00:27N 01°20' E 104°06'0 0.1
2016-Nov-25 23:30N 01°20' E 104°06'7 1.2
2016-Nov-25 17:23N 01°18' E 104°13'  

Dump ship's entire track history